Time;durP1;ratioP1;P1;durP2;ratioP2;P2;SDS_P1;SDS_P2;PMS_P1;PMS_P2;Temp;Humidity;BMP_temperature;BMP_pressure;BME280_temperature;BME280_humidity;BME280_pressure;Samples;Min_cycle;Max_cycle;Signal;HPM_P1;HPM_P2
2022/10/04 00:00:40;;;;;;;12.48;6.40;;;;;;;16.75;65.30;102417.53;6208161;23;20396;-78
2022/10/04 00:03:21;;;;;;;11.88;5.90;;;;;;;16.78;65.35;102417.56;6217981;23;20291;-79
2022/10/04 00:05:55;;;;;;;11.23;6.00;;;;;;;16.78;65.22;102414.94;6207788;22;21314;-78
2022/10/04 00:08:23;;;;;;;13.55;6.40;;;;;;;16.78;65.22;102414.94;6210699;22;20602;-78
2022/10/04 00:10:59;;;;;;;15.05;6.80;;;;;;;16.78;65.06;102414.94;6217340;23;20004;-78
2022/10/04 00:13:27;;;;;;;10.45;6.00;;;;;;;16.84;64.73;102401.81;6200438;22;20012;-78
2022/10/04 00:15:53;;;;;;;12.15;6.60;;;;;;;16.80;64.97;102405.31;6219299;22;20008;-77
2022/10/04 00:18:39;;;;;;;11.95;6.53;;;;;;;16.79;65.18;102407.91;6210227;22;20015;-78
2022/10/04 00:21:06;;;;;;;10.77;6.45;;;;;;;16.78;64.89;102404.38;6218544;22;20015;-79
2022/10/04 00:23:37;;;;;;;12.45;6.78;;;;;;;16.78;64.88;102392.97;6198376;22;20004;-78
2022/10/04 00:26:09;;;;;;;14.57;6.45;;;;;;;16.79;64.78;102403.53;6210697;23;20346;-79
2022/10/04 00:28:34;;;;;;;15.10;6.97;;;;;;;16.73;64.97;102402.56;6213829;22;20004;-78
2022/10/04 00:31:25;;;;;;;11.10;6.40;;;;;;;16.75;64.92;102392.94;6213666;22;20012;-76
2022/10/04 00:34:11;;;;;;;13.57;6.18;;;;;;;16.69;64.83;102393.75;6216509;22;20008;-76
2022/10/04 00:36:44;;;;;;;12.82;7.22;;;;;;;16.67;64.84;102399.84;6207629;22;20015;-76
2022/10/04 00:39:10;;;;;;;14.95;6.80;;;;;;;16.61;64.87;102409.44;6213463;22;20008;-78
2022/10/04 00:41:48;;;;;;;12.38;7.25;;;;;;;16.57;65.01;102412.88;6203615;22;20577;-78
2022/10/04 00:44:37;;;;;;;12.15;6.63;;;;;;;16.58;65.26;102413.78;6214029;23;20016;-78
2022/10/04 00:47:19;;;;;;;17.52;7.90;;;;;;;16.53;65.36;102408.41;6213138;22;20468;-78
2022/10/04 00:49:55;;;;;;;12.15;7.40;;;;;;;16.53;65.29;102402.28;6236931;22;20503;-76
2022/10/04 00:52:31;;;;;;;14.10;7.75;;;;;;;16.42;65.07;102399.50;6210851;22;20011;-78
2022/10/04 00:55:02;;;;;;;12.35;7.43;;;;;;;16.38;65.08;102397.69;6210433;22;20035;-78
2022/10/04 00:57:38;;;;;;;12.25;7.22;;;;;;;16.34;65.30;102388.00;6215725;22;20062;-78
2022/10/04 01:00:21;;;;;;;12.95;6.72;;;;;;;16.27;65.38;102374.72;6201351;23;20550;-78
2022/10/04 01:02:57;;;;;;;14.30;7.22;;;;;;;16.20;65.22;102385.19;6213575;22;20011;-78
2022/10/04 01:05:33;;;;;;;14.15;7.40;;;;;;;16.22;65.68;102383.44;6206554;22;20087;-78
2022/10/04 01:08:25;;;;;;;15.45;7.72;;;;;;;16.16;65.42;102375.44;6213935;23;20859;-75
2022/10/04 01:11:12;;;;;;;17.88;7.90;;;;;;;16.06;66.08;102376.19;6212699;23;20018;-75
2022/10/04 01:13:43;;;;;;;12.73;7.70;;;;;;;16.06;65.67;102364.78;6202740;22;20123;-76
2022/10/04 01:16:21;;;;;;;12.02;7.60;;;;;;;16.04;65.99;102364.75;6216185;22;20290;-76
2022/10/04 01:18:47;;;;;;;14.63;7.57;;;;;;;16.05;65.61;102371.78;6212672;22;20515;-75
2022/10/04 01:21:19;;;;;;;14.85;7.65;;;;;;;15.99;65.67;102374.31;6208501;22;20295;-75
2022/10/04 01:23:48;;;;;;;13.52;7.95;;;;;;;15.89;66.14;102368.91;6207827;22;20004;-75
2022/10/04 01:26:29;;;;;;;18.98;8.82;;;;;;;15.85;66.33;102356.59;6215584;22;20042;-75
2022/10/04 01:29:12;;;;;;;14.57;8.05;;;;;;;15.86;66.59;102348.69;6216513;22;20253;-75
2022/10/04 01:31:43;;;;;;;16.90;9.13;;;;;;;15.73;67.02;102358.16;6204805;22;20019;-75
2022/10/04 01:34:12;;;;;;;12.77;7.65;;;;;;;15.82;66.30;102344.25;6215204;22;20064;-76
2022/10/04 01:36:37;;;;;;;15.30;8.10;;;;;;;15.80;66.50;102343.34;6211691;22;20012;-75
2022/10/04 01:39:04;;;;;;;19.67;9.43;;;;;;;15.61;67.30;102336.94;6208381;22;20012;-75
2022/10/04 01:41:52;;;;;;;16.05;7.90;;;;;;;15.72;66.82;102327.47;6208765;22;20004;-75
2022/10/04 01:44:24;;;;;;;14.02;8.43;;;;;;;15.65;67.06;102322.09;6212373;22;20015;-75
2022/10/04 01:46:52;;;;;;;13.88;8.15;;;;;;;15.64;67.13;102323.81;6209000;22;20070;-75
2022/10/04 01:49:22;;;;;;;14.05;8.55;;;;;;;15.68;67.26;102315.13;6205873;22;20105;-75
2022/10/04 01:52:29;;;;;;;15.00;8.60;;;;;;;15.69;67.42;102309.00;6207479;22;20391;-77
2022/10/04 01:55:07;;;;;;;13.98;8.50;;;;;;;15.71;66.84;102307.28;6177062;23;20053;-75
2022/10/04 01:57:37;;;;;;;13.18;8.02;;;;;;;15.68;67.17;102306.34;6199210;23;20463;-75
2022/10/04 02:00:11;;;;;;;16.65;8.63;;;;;;;15.73;67.18;102287.19;6210388;22;20517;-78
2022/10/04 02:02:46;;;;;;;17.73;9.27;;;;;;;15.70;67.22;102286.22;6212533;22;20012;-76
2022/10/04 02:05:16;;;;;;;16.52;8.60;;;;;;;15.68;67.02;102280.03;6209647;22;20016;-75
2022/10/04 02:07:43;;;;;;;15.77;8.20;;;;;;;15.66;67.02;102274.78;6201118;23;20070;-75
2022/10/04 02:10:15;;;;;;;19.20;9.02;;;;;;;15.63;67.25;102263.31;6214443;22;20415;-78
2022/10/04 02:12:47;;;;;;;14.80;9.18;;;;;;;15.62;67.17;102257.19;6209244;22;20016;-77
2022/10/04 02:15:14;;;;;;;14.32;8.88;;;;;;;15.58;66.88;102249.25;6213058;23;20359;-77
2022/10/04 02:17:42;;;;;;;15.90;9.00;;;;;;;15.55;66.90;102246.59;6211277;22;20336;-77
2022/10/04 02:20:22;;;;;;;15.75;8.50;;;;;;;15.53;67.00;102241.28;6219094;22;20411;-78
2022/10/04 02:22:50;;;;;;;20.52;9.85;;;;;;;15.44;67.36;102242.00;6210321;22;20107;-76
2022/10/04 02:25:18;;;;;;;19.58;10.85;;;;;;;15.35;67.92;102239.25;6208349;22;20018;-77
2022/10/04 02:27:44;;;;;;;19.60;10.93;;;;;;;15.32;68.06;102238.28;6213157;22;20410;-75
2022/10/04 02:30:12;;;;;;;21.23;10.30;;;;;;;15.41;67.31;102243.69;6204881;22;20032;-75
2022/10/04 02:32:56;;;;;;;15.82;9.57;;;;;;;15.37;67.54;102244.50;6213677;22;20075;-77
2022/10/04 02:35:26;;;;;;;18.33;10.68;;;;;;;15.32;67.63;102239.19;6214649;22;20019;-77
2022/10/04 02:38:11;;;;;;;19.40;10.95;;;;;;;15.34;67.50;102236.59;6207446;22;20004;-77
2022/10/04 02:41:00;;;;;;;20.05;11.55;;;;;;;15.21;68.25;102226.72;6213140;22;20095;-76
2022/10/04 02:43:56;;;;;;;18.45;11.38;;;;;;;15.23;68.00;102212.78;6208495;22;20023;-77
2022/10/04 02:46:27;;;;;;;18.88;11.02;;;;;;;15.23;67.81;102206.63;6217532;22;20008;-77
2022/10/04 02:48:59;;;;;;;20.85;11.60;;;;;;;15.21;67.81;102203.09;6216454;22;20008;-76
2022/10/04 02:51:32;;;;;;;18.48;11.63;;;;;;;15.21;67.96;102203.09;6208994;22;20012;-76
2022/10/04 02:54:26;;;;;;;18.70;11.23;;;;;;;15.21;67.58;102205.72;6204249;22;20238;-76
2022/10/04 02:56:53;;;;;;;18.73;11.35;;;;;;;15.12;67.69;102205.59;6215346;22;20482;-76
2022/10/04 02:59:19;;;;;;;19.55;11.45;;;;;;;15.10;67.99;102202.94;6212439;22;20004;-76
2022/10/04 03:01:52;;;;;;;20.88;11.48;;;;;;;15.09;67.95;102205.53;6202760;22;20066;-76
2022/10/04 03:04:22;;;;;;;16.90;11.13;;;;;;;15.06;68.04;102202.88;6216794;22;20078;-76
2022/10/04 03:06:48;;;;;;;20.10;10.95;;;;;;;15.09;67.85;102193.28;6213428;22;20510;-75
2022/10/04 03:09:14;;;;;;;21.67;11.60;;;;;;;15.02;68.02;102191.41;6210031;22;20434;-75
2022/10/04 03:11:41;;;;;;;20.42;11.40;;;;;;;15.02;68.17;102183.53;6197103;22;20379;-76
2022/10/04 03:14:13;;;;;;;19.00;11.82;;;;;;;15.02;68.32;102179.16;6215967;22;20422;-76
2022/10/04 03:16:42;;;;;;;20.88;12.55;;;;;;;15.01;68.27;102187.00;6210636;22;20008;-76
2022/10/04 03:19:09;;;;;;;18.95;11.35;;;;;;;15.09;68.04;102171.38;6209558;22;20016;-75
2022/10/04 03:21:37;;;;;;;22.85;12.15;;;;;;;15.01;68.13;102172.13;6207644;22;20105;-75
2022/10/04 03:24:05;;;;;;;21.83;12.07;;;;;;;15.06;67.95;102163.47;6205839;22;20019;-75
2022/10/04 03:26:46;;;;;;;23.25;11.27;;;;;;;15.07;67.85;102167.84;6215586;22;20348;-75
2022/10/04 03:29:15;;;;;;;20.40;10.82;;;;;;;15.09;67.64;102166.13;6217822;22;20062;-75
2022/10/04 03:31:47;;;;;;;22.30;12.07;;;;;;;15.06;67.80;102159.09;6205599;23;20007;-75
2022/10/04 03:34:22;;;;;;;18.50;11.00;;;;;;;15.06;68.10;102151.22;6208930;23;20040;-75
2022/10/04 03:36:52;;;;;;;24.33;13.20;;;;;;;15.04;68.33;102150.31;6209922;22;20016;-76
2022/10/04 03:39:32;;;;;;;19.95;11.63;;;;;;;15.05;68.52;102154.72;6215549;22;20040;-76
2022/10/04 03:42:03;;;;;;;21.25;11.95;;;;;;;15.11;68.16;102157.41;6205533;22;20320;-75
2022/10/04 03:44:30;;;;;;;23.63;12.95;;;;;;;14.95;68.47;102151.03;6216919;22;20543;-75
2022/10/04 03:46:55;;;;;;;22.63;12.57;;;;;;;14.98;68.57;102158.97;6213576;22;20090;-74
2022/10/04 03:49:42;;;;;;;23.35;11.88;;;;;;;14.97;68.26;102148.44;6211028;22;20008;-74
2022/10/04 03:52:19;;;;;;;22.50;12.13;;;;;;;14.92;68.60;102158.88;6208283;23;20008;-74
2022/10/04 03:54:46;;;;;;;24.02;13.05;;;;;;;14.90;68.67;102164.94;6212543;22;20008;-74
2022/10/04 03:57:12;;;;;;;26.38;13.18;;;;;;;14.90;68.17;102168.47;6208881;22;20008;-74
2022/10/04 03:59:38;;;;;;;24.67;12.23;;;;;;;14.88;68.30;102156.19;6206099;22;20034;-74
2022/10/04 04:02:08;;;;;;;21.60;12.05;;;;;;;14.86;68.15;102153.53;6211190;22;20008;-74
2022/10/04 04:04:43;;;;;;;20.90;11.93;;;;;;;14.88;68.22;102150.94;6211268;22;20074;-74
2022/10/04 04:07:15;;;;;;;23.38;12.38;;;;;;;14.88;68.07;102154.41;6212582;22;20008;-75
2022/10/04 04:09:50;;;;;;;22.23;12.50;;;;;;;14.76;68.51;102161.25;6207246;22;20012;-75
2022/10/04 04:12:23;;;;;;;21.10;12.63;;;;;;;14.79;68.47;102159.53;6215510;22;20032;-76
2022/10/04 04:14:51;;;;;;;25.00;12.18;;;;;;;14.82;68.53;102156.09;6203385;22;20431;-75
2022/10/04 04:17:44;;;;;;;22.00;12.18;;;;;;;14.84;68.57;102155.22;6216699;22;20098;-76
2022/10/04 04:20:33;;;;;;;23.67;12.18;;;;;;;14.79;68.72;102153.41;6210007;22;20008;-76
2022/10/04 04:23:24;;;;;;;24.92;12.48;;;;;;;14.75;68.76;102148.97;6212311;23;20070;-73
2022/10/04 04:25:53;;;;;;;20.90;11.52;;;;;;;14.83;68.56;102155.19;6212887;22;20016;-77
2022/10/04 04:28:45;;;;;;;23.65;12.05;;;;;;;14.83;68.58;102150.84;6216448;22;20019;-75
2022/10/04 04:31:28;;;;;;;20.60;11.38;;;;;;;14.89;68.22;102152.66;6215008;22;20410;-76
2022/10/04 04:34:00;;;;;;;19.15;11.57;;;;;;;14.90;68.00;102154.44;6217861;22;20057;-76
2022/10/04 04:36:27;;;;;;;21.05;11.40;;;;;;;14.87;67.96;102151.78;6211293;22;20450;-76
2022/10/04 04:41:48;;;;;;;21.23;10.85;;;;;;;14.92;67.86;102152.75;6213471;23;20078;-75
2022/10/04 04:44:17;;;;;;;20.10;11.15;;;;;;;14.94;67.61;102151.88;6212093;22;20452;-74
2022/10/04 04:46:46;;;;;;;18.92;10.90;;;;;;;14.98;67.46;102155.47;6211755;23;20015;-74
2022/10/04 04:49:15;;;;;;;22.83;11.35;;;;;;;14.86;67.56;102158.78;6215482;22;20095;-76
2022/10/04 04:51:48;;;;;;;23.63;11.35;;;;;;;14.83;67.78;102156.09;6201057;22;20078;-75
2022/10/04 04:54:15;;;;;;;21.67;10.60;;;;;;;14.83;67.84;102160.44;6207934;22;20091;-75
2022/10/04 04:56:42;;;;;;;22.83;11.38;;;;;;;14.87;67.55;102159.66;6213618;22;20499;-75
2022/10/04 04:59:10;;;;;;;20.08;10.82;;;;;;;14.86;67.65;102155.28;6213693;22;20061;-75
2022/10/04 05:01:43;;;;;;;19.50;11.10;;;;;;;14.83;67.44;102156.09;6202473;22;20763;-76
2022/10/04 05:04:08;;;;;;;17.27;10.07;;;;;;;14.89;67.31;102153.56;6210881;23;20788;-74
2022/10/04 05:06:35;;;;;;;21.35;10.40;;;;;;;14.89;67.20;102150.03;6216077;23;20086;-75
2022/10/04 05:09:00;;;;;;;18.75;11.20;;;;;;;14.76;67.54;102146.34;6212089;22;20042;-75
2022/10/04 05:11:30;;;;;;;21.77;11.45;;;;;;;14.83;67.28;102149.94;6209420;23;20008;-75
2022/10/04 05:13:59;;;;;;;21.00;11.07;;;;;;;14.83;67.14;102152.56;6209959;22;20356;-75
2022/10/04 05:16:36;;;;;;;25.00;11.90;;;;;;;14.68;67.70;102155.84;6208401;23;20004;-75
2022/10/04 05:19:32;;;;;;;20.05;11.30;;;;;;;14.75;67.66;102151.59;6210009;23;20057;-75
2022/10/04 05:22:01;;;;;;;20.73;10.82;;;;;;;14.76;67.41;102148.97;6215005;23;20031;-74
2022/10/04 05:24:30;;;;;;;18.90;10.90;;;;;;;14.76;67.53;102142.84;6217901;22;20356;-74
2022/10/04 05:27:00;;;;;;;23.15;11.85;;;;;;;14.66;67.55;102140.91;6207480;22;20459;-75
2022/10/04 05:29:30;;;;;;;22.02;11.07;;;;;;;14.76;67.32;102133.22;6210810;22;20008;-76
2022/10/04 05:32:05;;;;;;;21.35;11.65;;;;;;;14.67;67.38;102132.19;6200454;22;20070;-75
2022/10/04 05:34:38;;;;;;;24.23;12.07;;;;;;;14.63;67.51;102133.00;6216702;22;20787;-75
2022/10/04 05:38:00;;;;;;;19.23;10.82;;;;;;;14.67;67.27;102122.59;6216032;22;20268;-75
2022/10/04 05:40:44;;;;;;;22.00;11.80;;;;;;;14.63;66.96;102126.03;6191824;22;20008;-74
2022/10/04 05:43:48;;;;;;;21.98;10.55;;;;;;;14.60;67.23;102120.72;6217511;22;20363;-75
2022/10/04 05:46:24;;;;;;;22.27;10.85;;;;;;;14.58;67.11;102123.28;6214879;23;20008;-75
2022/10/04 05:48:54;;;;;;;23.67;10.90;;;;;;;14.54;67.23;102108.38;6218256;22;20492;-74
2022/10/04 05:51:27;;;;;;;23.05;11.70;;;;;;;14.47;67.49;102108.22;6209298;22;20027;-74
2022/10/04 05:53:56;;;;;;;20.52;10.90;;;;;;;14.51;67.53;102103.09;6219745;22;20456;-75
2022/10/04 05:56:33;;;;;;;23.40;10.77;;;;;;;14.49;67.44;102111.78;6219021;22;20008;-75
2022/10/04 05:59:14;;;;;;;20.58;10.70;;;;;;;14.42;67.63;102108.16;6224558;22;20011;-76
2022/10/04 06:01:53;;;;;;;21.58;10.30;;;;;;;14.47;67.71;102106.50;6216093;22;20035;-76
2022/10/04 06:04:41;;;;;;;20.65;10.75;;;;;;;14.41;68.28;102111.63;6231111;22;20011;-75
2022/10/04 06:07:28;;;;;;;23.83;10.70;;;;;;;14.35;68.13;102114.13;6223703;23;20099;-74
2022/10/04 06:10:17;;;;;;;20.48;10.43;;;;;;;14.44;68.07;102101.22;6229395;22;20011;-75
2022/10/04 06:12:54;;;;;;;19.83;11.15;;;;;;;14.45;68.20;102097.72;6228324;22;20012;-75
2022/10/04 06:15:41;;;;;;;21.73;10.90;;;;;;;14.45;68.36;102091.59;6229423;22;20255;-75
2022/10/04 06:18:15;;;;;;;19.05;10.95;;;;;;;14.39;68.58;102097.63;6233879;22;20008;-74
2022/10/04 06:21:16;;;;;;;20.98;10.73;;;;;;;14.30;69.20;102107.03;6216124;22;20019;-75
2022/10/04 06:23:52;;;;;;;21.55;10.70;;;;;;;14.47;68.43;102106.50;6215757;22;20008;-74
2022/10/04 06:26:23;;;;;;;22.92;11.20;;;;;;;14.45;68.53;102091.59;6212920;22;20008;-73
2022/10/04 06:28:55;;;;;;;21.67;11.60;;;;;;;14.44;68.59;102089.84;6216840;22;20379;-74
2022/10/04 06:31:28;;;;;;;25.15;11.25;;;;;;;14.48;68.63;102094.25;6211426;22;20346;-76
2022/10/04 06:34:16;;;;;;;22.25;11.65;;;;;;;14.50;68.92;102093.44;6214995;23;20083;-75
2022/10/04 06:36:47;;;;;;;20.15;11.73;;;;;;;14.64;69.47;102090.16;6213055;22;20004;-74
2022/10/04 06:39:37;;;;;;;20.83;11.77;;;;;;;14.86;69.83;102089.63;6213278;22;20537;-73
2022/10/04 06:44:49;;;;;;;20.20;10.90;;;;;;;15.83;66.59;102083.94;6198506;22;20025;-36
2022/10/04 06:48:02;;;;;;;18.52;10.73;;;;;;;16.12;64.18;102080.72;6220408;22;20751;-35
2022/10/04 06:50:49;;;;;;;23.48;10.98;;;;;;;16.67;62.48;102087.38;6145799;22;20427;-34
2022/10/04 06:53:33;;;;;;;23.63;11.18;;;;;;;16.77;60.73;102083.09;6218723;22;20016;-34
2022/10/04 06:56:08;;;;;;;19.23;10.77;;;;;;;17.65;59.02;102086.22;6212801;22;20691;-42
2022/10/04 06:58:36;;;;;;;20.90;11.40;;;;;;;18.08;57.16;102079.28;6223858;22;20008;-34
2022/10/04 07:01:03;;;;;;;22.02;11.52;;;;;;;18.37;56.58;102081.97;6222980;22;20039;-33
2022/10/04 07:03:29;;;;;;;18.65;11.05;;;;;;;18.64;54.97;102090.81;6200664;22;20008;-32
2022/10/04 07:06:00;;;;;;;20.77;11.48;;;;;;;18.24;56.26;102088.97;6222719;22;20054;-36
2022/10/04 07:08:46;;;;;;;20.70;11.52;;;;;;;17.69;57.92;102098.53;6220737;22;20123;-32
2022/10/04 07:11:24;;;;;;;23.50;12.27;;;;;;;17.39;59.09;102088.69;6221921;22;20640;-33
2022/10/04 07:14:01;;;;;;;24.58;12.43;;;;;;;17.23;60.05;102094.78;6217083;22;20012;-34
2022/10/04 07:16:48;;;;;;;21.20;12.00;;;;;;;17.31;59.39;102093.97;6223201;22;20014;-33
2022/10/04 07:19:19;;;;;;;23.67;12.38;;;;;;;17.45;59.70;102100.16;6222936;22;20008;-32
2022/10/04 07:22:14;;;;;;;20.88;11.85;;;;;;;17.36;60.50;102092.22;6214025;22;20087;-33
2022/10/04 07:25:04;;;;;;;19.05;12.15;;;;;;;17.39;59.61;102092.22;6224935;22;20437;-33
2022/10/04 07:27:47;;;;;;;19.15;11.65;;;;;;;16.96;60.30;102093.72;6217045;22;20051;-33
2022/10/04 07:30:19;;;;;;;18.85;11.80;;;;;;;16.89;61.06;102091.06;6225518;22;20011;-35
2022/10/04 07:32:46;;;;;;;22.30;12.25;;;;;;;16.71;61.98;102093.56;6214145;22;20303;-35
2022/10/04 07:35:16;;;;;;;19.13;12.27;;;;;;;16.72;62.33;102090.94;6221709;22;20070;-34
2022/10/04 07:38:15;;;;;;;21.13;12.05;;;;;;;16.61;62.50;102105.75;6214656;22;20008;-35
2022/10/04 07:41:10;;;;;;;27.63;12.90;;;;;;;16.62;62.44;102104.91;6222147;23;20039;-33
2022/10/04 07:44:04;;;;;;;22.77;12.07;;;;;;;17.04;61.10;102114.88;6231886;22;20015;-34
2022/10/04 07:46:36;;;;;;;20.05;12.25;;;;;;;17.16;61.82;102122.84;6248419;22;20026;-32
2022/10/04 07:49:02;;;;;;;21.95;12.02;;;;;;;17.11;61.28;102114.03;6252883;22;20004;-33
2022/10/04 07:51:33;;;;;;;22.00;12.00;;;;;;;17.15;60.65;102114.94;6243421;22;20014;-34
2022/10/04 07:54:03;;;;;;;20.90;12.45;;;;;;;17.10;60.49;102112.28;6252689;22;20591;-37
2022/10/04 07:56:48;;;;;;;20.77;12.02;;;;;;;17.30;60.62;102115.03;6246823;22;20061;-36
2022/10/04 07:59:47;;;;;;;22.35;12.38;;;;;;;17.37;60.49;102108.91;6254458;22;20008;-36
2022/10/04 08:02:50;;;;;;;21.73;12.07;;;;;;;17.26;60.69;102115.91;6244158;22;20073;-34
2022/10/04 08:05:18;;;;;;;21.88;12.15;;;;;;;17.43;60.53;102120.38;6202540;22;20411;-35
2022/10/04 08:08:13;;;;;;;21.35;11.63;;;;;;;17.62;59.94;102115.22;6244833;22;20423;-35
2022/10/04 08:11:04;;;;;;;20.75;12.18;;;;;;;17.29;60.77;102113.25;6251936;22;20004;-35
2022/10/04 08:13:37;;;;;;;20.52;12.23;;;;;;;17.11;61.46;102106.13;6241844;22;20409;-36
2022/10/04 08:16:15;;;;;;;21.35;12.70;;;;;;;17.18;61.21;102109.69;6253048;22;20011;-35
2022/10/04 08:19:05;;;;;;;19.55;11.50;;;;;;;17.15;61.27;102101.75;6255116;22;20015;-36
2022/10/04 08:21:47;;;;;;;22.98;12.27;;;;;;;17.44;60.54;102108.09;6200952;22;20114;-73
2022/10/04 08:24:51;;;;;;;22.73;11.40;;;;;;;17.96;60.57;102103.00;6217684;22;20081;-71
2022/10/04 08:27:33;;;;;;;19.58;11.70;;;;;;;17.63;59.47;102098.50;6114417;23;20009;-72
2022/10/04 08:30:05;;;;;;;18.33;11.80;;;;;;;18.04;59.25;102088.97;6125543;23;20014;-71
2022/10/04 08:33:08;;;;;;;19.40;12.55;;;;;;;17.39;60.38;102096.63;6172884;22;20466;-72
2022/10/04 08:35:51;;;;;;;24.23;12.35;;;;;;;17.65;60.40;102095.00;6215746;22;20316;-71
2022/10/04 08:38:41;;;;;;;23.10;12.63;;;;;;;17.65;60.41;102092.38;6215735;22;20045;-72
2022/10/04 08:41:07;;;;;;;18.48;11.30;;;;;;;17.43;61.05;102099.28;6217165;22;20087;-72
2022/10/04 08:44:04;;;;;;;19.65;11.63;;;;;;;17.30;61.79;102109.75;6208969;22;20070;-73
2022/10/04 08:46:54;;;;;;;18.88;11.75;;;;;;;17.37;61.85;102108.91;6215618;22;20012;-71
2022/10/04 08:49:40;;;;;;;19.98;11.38;;;;;;;17.41;60.98;102095.75;6215344;22;20075;-71
2022/10/04 08:52:28;;;;;;;19.67;11.60;;;;;;;17.71;60.68;102104.69;6214889;22;20005;-72
2022/10/04 08:55:04;;;;;;;18.92;11.48;;;;;;;17.54;61.67;102096.69;6215280;22;20016;-72
2022/10/04 08:57:45;;;;;;;21.02;11.43;;;;;;;17.85;60.49;102103.00;6207771;22;20008;-71
2022/10/04 09:00:48;;;;;;;20.17;11.23;;;;;;;17.51;60.25;102101.94;6239578;22;20031;-71
2022/10/04 09:03:34;;;;;;;18.70;10.95;;;;;;;17.48;60.84;102106.34;6210970;23;20420;-70
2022/10/04 09:06:25;;;;;;;15.80;10.73;;;;;;;17.71;61.13;102095.03;6215862;22;20016;-71
2022/10/04 09:09:28;;;;;;;16.95;10.25;;;;;;;17.94;59.99;102097.72;6241031;22;20440;-72
2022/10/04 09:12:12;;;;;;;17.55;10.35;;;;;;;18.10;59.43;102102.19;6243529;22;20426;-71
2022/10/04 09:15:02;;;;;;;17.97;10.20;;;;;;;17.74;60.16;102110.00;6241748;22;20022;-70
2022/10/04 09:18:07;;;;;;;19.63;10.65;;;;;;;18.06;59.38;102103.03;6243262;22;20042;-72
2022/10/04 09:20:46;;;;;;;;;;;;;;;18.25;58.93;102089.00;6243855;22;20031;-71
2022/10/04 09:24:00;;;;;;;16.17;9.85;;;;;;;18.11;59.50;102087.22;6228759;22;19921;-70
2022/10/04 09:26:39;;;;;;;20.83;10.18;;;;;;;18.21;58.56;102073.16;6212952;22;20344;-73
2022/10/04 09:29:15;;;;;;;15.52;9.93;;;;;;;18.60;58.08;102059.13;6246330;22;20015;-72
2022/10/04 09:32:09;;;;;;;15.82;10.27;;;;;;;18.49;58.07;102059.06;6232704;22;20003;-71
2022/10/04 09:34:59;;;;;;;16.83;9.98;;;;;;;18.81;57.21;102047.63;6243050;22;20445;-71
2022/10/04 09:37:58;;;;;;;16.35;9.52;;;;;;;18.59;57.44;102052.06;6245788;22;20011;-70
2022/10/04 09:40:43;;;;;;;17.08;9.95;;;;;;;18.43;57.33;102048.50;6242620;22;20015;-71
2022/10/04 09:43:45;;;;;;;17.05;9.77;;;;;;;18.56;56.94;102054.72;6242162;22;20042;-72
2022/10/04 09:46:32;;;;;;;18.67;9.70;;;;;;;18.48;56.95;102073.16;6246374;22;20372;-71
2022/10/04 09:49:03;;;;;;;16.05;9.27;;;;;;;18.78;56.95;102072.31;6245129;22;20155;-72
2022/10/04 09:51:29;;;;;;;16.42;9.50;;;;;;;18.78;57.16;102072.31;6235610;22;20004;-71
2022/10/04 09:54:00;;;;;;;15.70;9.50;;;;;;;18.89;56.57;102082.84;6249065;22;20302;-72
2022/10/04 09:56:44;;;;;;;17.40;9.77;;;;;;;18.96;56.26;102077.56;6235845;22;20018;-72
2022/10/04 09:59:20;;;;;;;15.88;9.05;;;;;;;19.30;55.22;102075.69;6248457;22;20308;-72
2022/10/04 10:02:06;;;;;;;14.38;9.82;;;;;;;19.28;55.07;102071.28;6235261;22;20003;-72
2022/10/04 10:04:58;;;;;;;19.65;10.35;;;;;;;19.47;54.99;102077.41;6245599;22;20730;-72
2022/10/04 10:07:48;;;;;;;18.98;9.90;;;;;;;19.14;55.97;102070.47;6240844;22;20011;-72
2022/10/04 10:14:03;;;;;;;15.40;9.07;;;;;;;19.82;54.08;102071.06;6247029;22;20457;-72
2022/10/04 10:16:40;;;;;;;17.73;10.10;;;;;;;19.76;54.42;102076.38;6243020;22;20457;-70
2022/10/04 10:19:13;;;;;;;17.05;10.20;;;;;;;19.54;54.76;102077.41;6244991;22;20037;-71
2022/10/04 10:22:13;;;;;;;14.80;8.77;;;;;;;19.97;53.61;102069.22;6236691;22;20019;-72
2022/10/04 10:24:57;;;;;;;17.92;9.30;;;;;;;19.91;53.21;102056.91;6237895;22;20008;-72
2022/10/04 10:27:51;;;;;;;14.75;8.57;;;;;;;20.18;53.23;102056.72;6240869;22;20007;-71
2022/10/04 10:30:24;;;;;;;18.83;9.50;;;;;;;20.11;52.58;102051.50;6244599;22;20067;-72
2022/10/04 10:33:10;;;;;;;16.65;8.48;;;;;;;20.02;52.51;102049.78;6239667;22;20319;-71
2022/10/04 10:36:03;;;;;;;15.07;8.60;;;;;;;20.09;52.46;102053.25;6241435;22;20524;-71
2022/10/04 10:38:47;;;;;;;14.57;8.95;;;;;;;19.94;53.30;102050.72;6241117;22;20489;-71
2022/10/04 10:41:34;;;;;;;17.75;8.38;;;;;;;20.08;53.15;102054.16;6239009;22;20003;-72
2022/10/04 10:44:09;;;;;;;15.80;8.82;;;;;;;19.68;53.64;102056.16;6236025;22;20037;-73
2022/10/04 10:46:41;;;;;;;13.13;7.40;;;;;;;20.34;51.37;102048.69;6266380;22;20600;-71
2022/10/04 10:49:33;;;;;;;12.52;7.90;;;;;;;20.77;50.79;102057.13;6244521;22;20007;-71
2022/10/04 10:52:21;;;;;;;12.77;7.80;;;;;;;20.86;50.39;102057.91;6244166;22;20004;-72
2022/10/04 10:54:53;;;;;;;11.30;7.15;;;;;;;21.06;49.65;102053.28;6244776;22;20012;-72
2022/10/04 10:57:55;;;;;;;11.88;7.35;;;;;;;21.13;49.88;102048.78;6242446;22;20087;-71
2022/10/04 11:00:24;;;;;;;18.13;8.43;;;;;;;20.86;50.70;102041.16;6248114;22;20829;-71
2022/10/04 11:03:42;;;;;;;20.10;8.48;;;;;;;21.35;49.65;102049.41;6239864;22;20224;-72
2022/10/04 11:06:12;;;;;;;15.27;8.40;;;;;;;21.85;48.47;102038.13;6227572;22;20069;-71
2022/10/04 11:08:56;;;;;;;14.52;8.10;;;;;;;21.72;47.27;102041.84;6239781;22;20449;-71
2022/10/04 11:11:40;;;;;;;16.07;7.80;;;;;;;22.02;48.23;102045.88;6242554;22;20042;-72
2022/10/04 11:14:48;;;;;;;14.10;7.22;;;;;;;22.02;47.64;102046.75;6243095;22;20007;-73
2022/10/04 11:17:35;;;;;;;13.07;7.55;;;;;;;21.79;47.82;102051.50;6214686;22;20338;-71
2022/10/04 11:20:33;;;;;;;11.18;7.22;;;;;;;21.28;47.97;102050.41;6239632;22;20019;-72
2022/10/04 11:23:33;;;;;;;15.52;6.63;;;;;;;21.42;47.43;102049.34;6244818;22;20439;-72
2022/10/04 11:26:14;;;;;;;11.75;6.70;;;;;;;21.95;46.87;102039.81;6238282;22;20011;-72
2022/10/04 11:28:41;;;;;;;12.40;7.43;;;;;;;21.85;47.24;102046.09;6245788;22;20339;-73
2022/10/04 11:31:22;;;;;;;14.95;7.72;;;;;;;21.64;47.50;102039.31;6244211;22;20007;-73
2022/10/04 11:34:10;;;;;;;12.95;7.85;;;;;;;21.73;47.78;102039.19;6241300;22;20011;-73
2022/10/04 11:36:55;;;;;;;11.27;7.13;;;;;;;21.50;47.60;102046.59;6248286;22;20007;-72
2022/10/04 11:39:41;;;;;;;15.00;7.82;;;;;;;21.42;48.28;102046.69;6246444;22;20111;-71
2022/10/04 11:42:22;;;;;;;14.88;8.90;;;;;;;21.42;48.22;102045.78;6240867;22;20007;-70
2022/10/04 11:45:32;;;;;;;18.30;9.68;;;;;;;21.44;48.91;102044.00;6242551;22;20011;-72
2022/10/04 11:48:46;;;;;;;17.60;9.27;;;;;;;21.01;49.97;102047.16;6248044;22;20507;-72
2022/10/04 11:51:50;;;;;;;14.70;8.30;;;;;;;20.95;49.39;102041.03;6207938;23;20113;-72
2022/10/04 11:54:57;;;;;;;17.73;9.93;;;;;;;20.95;50.04;102036.59;6181120;23;20015;-73
2022/10/04 11:58:02;;;;;;;17.63;10.18;;;;;;;20.85;50.53;102023.47;6268052;22;20020;-72
2022/10/04 12:00:59;;;;;;;19.88;9.98;;;;;;;20.87;51.38;102019.03;6246449;22;20014;-72
2022/10/04 12:03:54;;;;;;;16.48;9.77;;;;;;;20.92;51.54;102020.72;6242370;22;20451;-71
2022/10/04 12:06:33;;;;;;;;;;;;;;;21.02;49.79;102019.75;6250984;22;20458;-72
2022/10/04 12:09:08;;;;;;;16.33;9.70;;;;;;;21.02;48.93;102014.44;6242537;22;19915;-72
2022/10/04 12:14:57;;;;;;;14.43;9.85;;;;;;;21.03;50.12;102010.91;6243757;22;20097;-72
2022/10/04 12:17:39;;;;;;;18.08;10.90;;;;;;;20.87;50.58;102008.41;6249531;22;20011;-73
2022/10/04 12:20:43;;;;;;;15.13;9.48;;;;;;;20.81;51.05;102008.47;6245465;22;20023;-71